Cuzzart, West Virginia
Current Conditions -  °F | °C
As of 5:53 AM on Sunday 23 Nov 2014 (Local Time) from KMGW Reporting Station
Broken Clouds Broken Clouds  
Wind Chill: 52°   Ceiling: 7000
Heat Index: 52°   Visibility: 10mi
Dew Point: 24°   Wind: 5mph
Humidity: 34%   Direction: 180°S
Pressure: 30.13"   Gusts: NA
Location:  39.6431°N, 79.6244°W
Report Text: KMGW 231053Z AUTO 18004KT 10SM BKN070 11/M04 A3013 RMK AO2 SLP203 T01111044 TSNO
Loading
Personal Weather Stations






























Interactive Weather Map New forecast layout! Learn more

10-Day Weather Forecast

Advertisements
Track Severe Weather on mobile